sensor_id;sensor_type;location;lat;lon;timestamp;P1;durP1;ratioP1;P2;durP2;ratioP2
6203;SDS011;3135;42.602;23.468;2023-07-13T00:02:09;3.53;;;2.50;;
6203;SDS011;3135;42.602;23.468;2023-07-13T00:04:35;2.42;;;2.22;;
6203;SDS011;3135;42.602;23.468;2023-07-13T00:07:01;3.78;;;2.20;;
6203;SDS011;3135;42.602;23.468;2023-07-13T00:09:26;2.97;;;2.50;;
6203;SDS011;3135;42.602;23.468;2023-07-13T00:11:55;2.57;;;2.27;;
6203;SDS011;3135;42.602;23.468;2023-07-13T00:14:23;3.70;;;2.40;;
6203;SDS011;3135;42.602;23.468;2023-07-13T00:16:49;3.35;;;2.50;;
6203;SDS011;3135;42.602;23.468;2023-07-13T00:19:15;4.28;;;2.60;;
6203;SDS011;3135;42.602;23.468;2023-07-13T00:21:41;4.57;;;2.60;;
6203;SDS011;3135;42.602;23.468;2023-07-13T00:24:07;3.92;;;2.78;;
6203;SDS011;3135;42.602;23.468;2023-07-13T00:26:38;2.83;;;2.58;;
6203;SDS011;3135;42.602;23.468;2023-07-13T00:29:04;3.13;;;2.85;;
6203;SDS011;3135;42.602;23.468;2023-07-13T00:31:33;3.85;;;2.85;;
6203;SDS011;3135;42.602;23.468;2023-07-13T00:33:59;2.60;;;2.35;;
6203;SDS011;3135;42.602;23.468;2023-07-13T00:36:25;4.15;;;2.70;;
6203;SDS011;3135;42.602;23.468;2023-07-13T00:38:51;3.20;;;2.70;;
6203;SDS011;3135;42.602;23.468;2023-07-13T00:41:16;3.17;;;2.63;;
6203;SDS011;3135;42.602;23.468;2023-07-13T00:43:42;2.95;;;2.60;;
6203;SDS011;3135;42.602;23.468;2023-07-13T00:48:41;4.07;;;2.40;;
6203;SDS011;3135;42.602;23.468;2023-07-13T00:51:09;6.67;;;2.33;;
6203;SDS011;3135;42.602;23.468;2023-07-13T00:53:35;3.00;;;2.70;;
6203;SDS011;3135;42.602;23.468;2023-07-13T00:56:01;5.20;;;2.50;;
6203;SDS011;3135;42.602;23.468;2023-07-13T00:58:28;2.97;;;2.70;;
6203;SDS011;3135;42.602;23.468;2023-07-13T01:00:54;3.38;;;2.60;;
6203;SDS011;3135;42.602;23.468;2023-07-13T01:03:19;3.90;;;2.60;;
6203;SDS011;3135;42.602;23.468;2023-07-13T01:05:46;2.90;;;2.33;;
6203;SDS011;3135;42.602;23.468;2023-07-13T01:08:13;3.03;;;2.50;;
6203;SDS011;3135;42.602;23.468;2023-07-13T01:10:39;4.70;;;2.40;;
6203;SDS011;3135;42.602;23.468;2023-07-13T01:13:05;2.70;;;2.50;;
6203;SDS011;3135;42.602;23.468;2023-07-13T01:18:04;4.20;;;2.70;;
6203;SDS011;3135;42.602;23.468;2023-07-13T01:20:32;3.42;;;2.75;;
6203;SDS011;3135;42.602;23.468;2023-07-13T01:23:03;4.03;;;2.50;;
6203;SDS011;3135;42.602;23.468;2023-07-13T01:25:31;4.22;;;2.30;;
6203;SDS011;3135;42.602;23.468;2023-07-13T01:27:57;4.17;;;2.40;;
6203;SDS011;3135;42.602;23.468;2023-07-13T01:30:22;3.67;;;2.83;;
6203;SDS011;3135;42.602;23.468;2023-07-13T01:32:47;2.88;;;2.67;;
6203;SDS011;3135;42.602;23.468;2023-07-13T01:35:13;3.40;;;3.10;;
6203;SDS011;3135;42.602;23.468;2023-07-13T01:37:38;4.07;;;2.90;;
6203;SDS011;3135;42.602;23.468;2023-07-13T01:40:04;4.15;;;2.80;;
6203;SDS011;3135;42.602;23.468;2023-07-13T01:42:30;4.22;;;2.90;;
6203;SDS011;3135;42.602;23.468;2023-07-13T01:44:56;3.30;;;2.88;;
6203;SDS011;3135;42.602;23.468;2023-07-13T01:47:22;3.00;;;2.70;;
6203;SDS011;3135;42.602;23.468;2023-07-13T01:49:48;3.80;;;2.92;;
6203;SDS011;3135;42.602;23.468;2023-07-13T01:52:15;4.93;;;2.90;;
6203;SDS011;3135;42.602;23.468;2023-07-13T01:54:40;3.70;;;2.60;;
6203;SDS011;3135;42.602;23.468;2023-07-13T01:57:05;4.30;;;2.75;;
6203;SDS011;3135;42.602;23.468;2023-07-13T01:59:31;4.73;;;2.97;;
6203;SDS011;3135;42.602;23.468;2023-07-13T02:01:58;3.37;;;2.90;;
6203;SDS011;3135;42.602;23.468;2023-07-13T02:04:23;6.57;;;2.93;;
6203;SDS011;3135;42.602;23.468;2023-07-13T02:06:49;3.57;;;2.80;;
6203;SDS011;3135;42.602;23.468;2023-07-13T02:09:14;3.20;;;2.90;;
6203;SDS011;3135;42.602;23.468;2023-07-13T02:11:40;3.43;;;2.90;;
6203;SDS011;3135;42.602;23.468;2023-07-13T02:14:05;4.18;;;3.00;;
6203;SDS011;3135;42.602;23.468;2023-07-13T02:16:31;4.50;;;2.80;;
6203;SDS011;3135;42.602;23.468;2023-07-13T02:18:56;3.43;;;2.60;;
6203;SDS011;3135;42.602;23.468;2023-07-13T02:21:22;3.70;;;3.03;;
6203;SDS011;3135;42.602;23.468;2023-07-13T02:23:48;3.25;;;2.72;;
6203;SDS011;3135;42.602;23.468;2023-07-13T02:26:14;5.87;;;2.87;;
6203;SDS011;3135;42.602;23.468;2023-07-13T02:28:39;3.00;;;2.70;;
6203;SDS011;3135;42.602;23.468;2023-07-13T02:31:10;3.45;;;2.88;;
6203;SDS011;3135;42.602;23.468;2023-07-13T02:33:37;3.78;;;3.03;;
6203;SDS011;3135;42.602;23.468;2023-07-13T02:36:02;4.23;;;2.73;;
6203;SDS011;3135;42.602;23.468;2023-07-13T02:38:30;4.53;;;2.97;;
6203;SDS011;3135;42.602;23.468;2023-07-13T02:40:58;3.25;;;2.90;;
6203;SDS011;3135;42.602;23.468;2023-07-13T02:43:24;3.47;;;2.42;;
6203;SDS011;3135;42.602;23.468;2023-07-13T02:45:50;2.92;;;2.65;;
6203;SDS011;3135;42.602;23.468;2023-07-13T02:48:15;2.97;;;2.60;;
6203;SDS011;3135;42.602;23.468;2023-07-13T02:50:40;3.17;;;2.87;;
6203;SDS011;3135;42.602;23.468;2023-07-13T02:53:06;5.00;;;2.90;;
6203;SDS011;3135;42.602;23.468;2023-07-13T02:55:31;4.77;;;2.60;;
6203;SDS011;3135;42.602;23.468;2023-07-13T02:57:57;3.70;;;3.00;;
6203;SDS011;3135;42.602;23.468;2023-07-13T03:00:22;3.53;;;2.85;;
6203;SDS011;3135;42.602;23.468;2023-07-13T03:02:48;5.18;;;2.97;;
6203;SDS011;3135;42.602;23.468;2023-07-13T03:05:14;5.03;;;2.90;;
6203;SDS011;3135;42.602;23.468;2023-07-13T03:07:41;4.57;;;3.22;;
6203;SDS011;3135;42.602;23.468;2023-07-13T03:10:07;3.75;;;3.05;;
6203;SDS011;3135;42.602;23.468;2023-07-13T03:12:33;3.53;;;3.23;;
6203;SDS011;3135;42.602;23.468;2023-07-13T03:14:58;5.37;;;3.33;;
6203;SDS011;3135;42.602;23.468;2023-07-13T03:17:24;3.70;;;3.30;;
6203;SDS011;3135;42.602;23.468;2023-07-13T03:19:49;3.20;;;2.90;;
6203;SDS011;3135;42.602;23.468;2023-07-13T03:22:19;5.32;;;3.03;;
6203;SDS011;3135;42.602;23.468;2023-07-13T03:24:44;3.95;;;3.13;;
6203;SDS011;3135;42.602;23.468;2023-07-13T03:27:10;4.43;;;3.00;;
6203;SDS011;3135;42.602;23.468;2023-07-13T03:29:36;4.00;;;2.83;;
6203;SDS011;3135;42.602;23.468;2023-07-13T03:32:01;3.65;;;3.03;;
6203;SDS011;3135;42.602;23.468;2023-07-13T03:34:29;8.17;;;3.27;;
6203;SDS011;3135;42.602;23.468;2023-07-13T03:36:54;4.50;;;2.97;;
6203;SDS011;3135;42.602;23.468;2023-07-13T03:39:20;4.20;;;3.20;;
6203;SDS011;3135;42.602;23.468;2023-07-13T03:41:45;4.05;;;3.45;;
6203;SDS011;3135;42.602;23.468;2023-07-13T03:44:11;5.65;;;3.50;;
6203;SDS011;3135;42.602;23.468;2023-07-13T03:46:37;5.50;;;3.40;;
6203;SDS011;3135;42.602;23.468;2023-07-13T03:49:03;4.47;;;3.43;;
6203;SDS011;3135;42.602;23.468;2023-07-13T03:51:30;4.93;;;3.42;;
6203;SDS011;3135;42.602;23.468;2023-07-13T03:53:56;3.95;;;3.25;;
6203;SDS011;3135;42.602;23.468;2023-07-13T03:56:21;4.88;;;3.28;;
6203;SDS011;3135;42.602;23.468;2023-07-13T03:58:48;3.83;;;3.10;;
6203;SDS011;3135;42.602;23.468;2023-07-13T04:01:15;5.82;;;3.58;;
6203;SDS011;3135;42.602;23.468;2023-07-13T04:03:42;4.05;;;3.53;;
6203;SDS011;3135;42.602;23.468;2023-07-13T04:06:11;4.20;;;3.38;;
6203;SDS011;3135;42.602;23.468;2023-07-13T04:08:40;4.77;;;4.17;;
6203;SDS011;3135;42.602;23.468;2023-07-13T04:11:06;5.37;;;3.90;;
6203;SDS011;3135;42.602;23.468;2023-07-13T04:13:32;6.28;;;3.50;;
6203;SDS011;3135;42.602;23.468;2023-07-13T04:15:58;6.57;;;3.60;;
6203;SDS011;3135;42.602;23.468;2023-07-13T04:18:23;7.43;;;4.15;;
6203;SDS011;3135;42.602;23.468;2023-07-13T04:20:49;6.03;;;3.60;;
6203;SDS011;3135;42.602;23.468;2023-07-13T04:23:18;5.25;;;3.85;;
6203;SDS011;3135;42.602;23.468;2023-07-13T04:25:47;3.97;;;3.45;;
6203;SDS011;3135;42.602;23.468;2023-07-13T04:28:18;6.93;;;3.70;;
6203;SDS011;3135;42.602;23.468;2023-07-13T04:30:44;4.28;;;3.67;;
6203;SDS011;3135;42.602;23.468;2023-07-13T04:33:09;4.25;;;3.85;;
6203;SDS011;3135;42.602;23.468;2023-07-13T04:35:35;5.78;;;3.63;;
6203;SDS011;3135;42.602;23.468;2023-07-13T04:38:02;5.63;;;3.90;;
6203;SDS011;3135;42.602;23.468;2023-07-13T04:40:28;8.52;;;4.30;;
6203;SDS011;3135;42.602;23.468;2023-07-13T04:42:54;8.85;;;4.40;;
6203;SDS011;3135;42.602;23.468;2023-07-13T04:45:21;5.45;;;4.20;;
6203;SDS011;3135;42.602;23.468;2023-07-13T04:47:49;4.25;;;3.88;;
6203;SDS011;3135;42.602;23.468;2023-07-13T04:50:14;4.40;;;4.00;;
6203;SDS011;3135;42.602;23.468;2023-07-13T05:01:04;6.07;;;5.05;;
6203;SDS011;3135;42.602;23.468;2023-07-13T05:03:30;6.93;;;5.05;;
6203;SDS011;3135;42.602;23.468;2023-07-13T05:05:56;8.38;;;5.57;;
6203;SDS011;3135;42.602;23.468;2023-07-13T05:08:26;8.23;;;5.20;;
6203;SDS011;3135;42.602;23.468;2023-07-13T05:10:52;9.20;;;5.03;;
6203;SDS011;3135;42.602;23.468;2023-07-13T05:13:17;9.52;;;5.03;;
6203;SDS011;3135;42.602;23.468;2023-07-13T05:15:43;8.63;;;5.38;;
6203;SDS011;3135;42.602;23.468;2023-07-13T05:18:08;9.93;;;5.50;;
6203;SDS011;3135;42.602;23.468;2023-07-13T05:20:34;6.80;;;5.40;;
6203;SDS011;3135;42.602;23.468;2023-07-13T05:22:59;7.72;;;6.18;;
6203;SDS011;3135;42.602;23.468;2023-07-13T05:25:24;7.43;;;5.33;;
6203;SDS011;3135;42.602;23.468;2023-07-13T05:27:50;9.80;;;5.50;;
6203;SDS011;3135;42.602;23.468;2023-07-13T05:30:15;9.97;;;5.53;;
6203;SDS011;3135;42.602;23.468;2023-07-13T05:32:41;10.10;;;5.63;;
6203;SDS011;3135;42.602;23.468;2023-07-13T05:35:07;9.80;;;5.80;;
6203;SDS011;3135;42.602;23.468;2023-07-13T05:37:32;10.73;;;6.15;;
6203;SDS011;3135;42.602;23.468;2023-07-13T05:39:58;8.70;;;5.70;;
6203;SDS011;3135;42.602;23.468;2023-07-13T05:42:24;11.30;;;5.87;;
6203;SDS011;3135;42.602;23.468;2023-07-13T05:44:49;13.37;;;6.47;;
6203;SDS011;3135;42.602;23.468;2023-07-13T05:47:14;10.53;;;6.43;;
6203;SDS011;3135;42.602;23.468;2023-07-13T05:49:40;9.10;;;6.60;;
6203;SDS011;3135;42.602;23.468;2023-07-13T05:52:06;12.77;;;6.38;;
6203;SDS011;3135;42.602;23.468;2023-07-13T05:54:32;10.55;;;6.70;;
6203;SDS011;3135;42.602;23.468;2023-07-13T05:56:57;10.40;;;6.47;;
6203;SDS011;3135;42.602;23.468;2023-07-13T05:59:23;9.67;;;6.00;;
6203;SDS011;3135;42.602;23.468;2023-07-13T06:01:48;9.55;;;6.55;;
6203;SDS011;3135;42.602;23.468;2023-07-13T06:04:14;9.10;;;6.47;;
6203;SDS011;3135;42.602;23.468;2023-07-13T06:06:40;10.33;;;7.00;;
6203;SDS011;3135;42.602;23.468;2023-07-13T06:09:05;11.50;;;6.90;;
6203;SDS011;3135;42.602;23.468;2023-07-13T06:11:31;11.20;;;6.23;;
6203;SDS011;3135;42.602;23.468;2023-07-13T06:13:56;13.53;;;7.23;;
6203;SDS011;3135;42.602;23.468;2023-07-13T06:16:22;7.38;;;6.30;;
6203;SDS011;3135;42.602;23.468;2023-07-13T06:18:48;12.15;;;6.28;;
6203;SDS011;3135;42.602;23.468;2023-07-13T06:21:14;11.97;;;6.63;;
6203;SDS011;3135;42.602;23.468;2023-07-13T06:23:42;10.15;;;6.95;;
6203;SDS011;3135;42.602;23.468;2023-07-13T06:26:09;8.75;;;6.63;;
6203;SDS011;3135;42.602;23.468;2023-07-13T06:28:35;10.07;;;6.60;;
6203;SDS011;3135;42.602;23.468;2023-07-13T06:31:01;7.00;;;5.93;;
6203;SDS011;3135;42.602;23.468;2023-07-13T06:33:29;12.18;;;6.65;;
6203;SDS011;3135;42.602;23.468;2023-07-13T06:35:54;8.20;;;6.53;;
6203;SDS011;3135;42.602;23.468;2023-07-13T06:38:20;8.52;;;6.00;;
6203;SDS011;3135;42.602;23.468;2023-07-13T06:40:46;10.30;;;6.53;;
6203;SDS011;3135;42.602;23.468;2023-07-13T06:43:11;8.60;;;6.33;;
6203;SDS011;3135;42.602;23.468;2023-07-13T06:45:40;8.17;;;6.43;;
6203;SDS011;3135;42.602;23.468;2023-07-13T06:48:14;7.28;;;6.05;;
6203;SDS011;3135;42.602;23.468;2023-07-13T06:50:41;8.33;;;5.90;;
6203;SDS011;3135;42.602;23.468;2023-07-13T06:53:07;8.00;;;6.53;;
6203;SDS011;3135;42.602;23.468;2023-07-13T06:55:32;11.73;;;6.28;;
6203;SDS011;3135;42.602;23.468;2023-07-13T06:57:58;8.07;;;6.20;;
6203;SDS011;3135;42.602;23.468;2023-07-13T07:00:23;9.68;;;6.30;;
6203;SDS011;3135;42.602;23.468;2023-07-13T07:02:49;10.00;;;6.07;;
6203;SDS011;3135;42.602;23.468;2023-07-13T07:05:14;6.93;;;6.10;;
6203;SDS011;3135;42.602;23.468;2023-07-13T07:07:39;9.97;;;6.37;;
6203;SDS011;3135;42.602;23.468;2023-07-13T07:10:05;8.07;;;6.23;;
6203;SDS011;3135;42.602;23.468;2023-07-13T07:12:31;10.95;;;6.35;;
6203;SDS011;3135;42.602;23.468;2023-07-13T07:14:56;9.00;;;5.78;;
6203;SDS011;3135;42.602;23.468;2023-07-13T07:17:22;7.90;;;5.70;;
6203;SDS011;3135;42.602;23.468;2023-07-13T07:19:47;8.20;;;5.80;;
6203;SDS011;3135;42.602;23.468;2023-07-13T07:22:13;6.67;;;6.00;;
6203;SDS011;3135;42.602;23.468;2023-07-13T07:24:38;6.83;;;6.13;;
6203;SDS011;3135;42.602;23.468;2023-07-13T07:27:04;7.93;;;5.95;;
6203;SDS011;3135;42.602;23.468;2023-07-13T07:29:29;7.80;;;6.17;;
6203;SDS011;3135;42.602;23.468;2023-07-13T07:31:55;7.13;;;5.60;;
6203;SDS011;3135;42.602;23.468;2023-07-13T07:34:20;7.17;;;6.23;;
6203;SDS011;3135;42.602;23.468;2023-07-13T07:36:46;8.10;;;6.33;;
6203;SDS011;3135;42.602;23.468;2023-07-13T07:39:11;9.27;;;6.70;;
6203;SDS011;3135;42.602;23.468;2023-07-13T07:41:37;6.90;;;6.18;;
6203;SDS011;3135;42.602;23.468;2023-07-13T07:44:03;10.07;;;6.57;;
6203;SDS011;3135;42.602;23.468;2023-07-13T07:46:29;8.27;;;6.65;;
6203;SDS011;3135;42.602;23.468;2023-07-13T07:48:55;7.97;;;6.67;;
6203;SDS011;3135;42.602;23.468;2023-07-13T07:51:21;8.75;;;6.55;;
6203;SDS011;3135;42.602;23.468;2023-07-13T07:53:47;10.80;;;6.80;;
6203;SDS011;3135;42.602;23.468;2023-07-13T07:56:13;11.40;;;6.93;;
6203;SDS011;3135;42.602;23.468;2023-07-13T07:58:38;12.20;;;7.55;;
6203;SDS011;3135;42.602;23.468;2023-07-13T08:01:04;9.23;;;6.83;;
6203;SDS011;3135;42.602;23.468;2023-07-13T08:03:31;7.70;;;6.70;;
6203;SDS011;3135;42.602;23.468;2023-07-13T08:05:57;9.15;;;6.70;;
6203;SDS011;3135;42.602;23.468;2023-07-13T08:08:22;9.20;;;6.70;;
6203;SDS011;3135;42.602;23.468;2023-07-13T08:10:48;11.07;;;7.27;;
6203;SDS011;3135;42.602;23.468;2023-07-13T08:13:13;9.63;;;6.97;;
6203;SDS011;3135;42.602;23.468;2023-07-13T08:15:39;10.70;;;7.10;;
6203;SDS011;3135;42.602;23.468;2023-07-13T08:18:05;9.52;;;6.75;;
6203;SDS011;3135;42.602;23.468;2023-07-13T08:20:31;8.52;;;6.75;;
6203;SDS011;3135;42.602;23.468;2023-07-13T08:22:56;9.65;;;6.85;;
6203;SDS011;3135;42.602;23.468;2023-07-13T08:25:22;9.60;;;6.90;;
6203;SDS011;3135;42.602;23.468;2023-07-13T08:27:48;10.93;;;6.97;;
6203;SDS011;3135;42.602;23.468;2023-07-13T08:30:13;7.67;;;6.40;;
6203;SDS011;3135;42.602;23.468;2023-07-13T08:32:38;7.87;;;6.77;;
6203;SDS011;3135;42.602;23.468;2023-07-13T08:35:05;8.23;;;6.57;;
6203;SDS011;3135;42.602;23.468;2023-07-13T08:37:31;9.35;;;6.45;;
6203;SDS011;3135;42.602;23.468;2023-07-13T08:39:56;7.00;;;6.30;;
6203;SDS011;3135;42.602;23.468;2023-07-13T08:42:39;9.20;;;6.57;;
6203;SDS011;3135;42.602;23.468;2023-07-13T08:47:41;9.37;;;6.50;;
6203;SDS011;3135;42.602;23.468;2023-07-13T08:50:14;7.60;;;6.70;;
6203;SDS011;3135;42.602;23.468;2023-07-13T08:52:42;7.47;;;6.25;;
6203;SDS011;3135;42.602;23.468;2023-07-13T08:55:16;9.25;;;6.45;;
6203;SDS011;3135;42.602;23.468;2023-07-13T08:57:42;7.68;;;6.40;;
6203;SDS011;3135;42.602;23.468;2023-07-13T09:00:12;7.67;;;6.13;;
6203;SDS011;3135;42.602;23.468;2023-07-13T09:02:58;9.13;;;6.60;;
6203;SDS011;3135;42.602;23.468;2023-07-13T09:05:27;8.55;;;6.68;;
6203;SDS011;3135;42.602;23.468;2023-07-13T09:13:46;9.55;;;6.90;;
6203;SDS011;3135;42.602;23.468;2023-07-13T09:16:26;7.00;;;6.30;;
6203;SDS011;3135;42.602;23.468;2023-07-13T09:18:52;9.07;;;6.60;;
6203;SDS011;3135;42.602;23.468;2023-07-13T09:21:25;8.00;;;7.05;;
6203;SDS011;3135;42.602;23.468;2023-07-13T09:23:56;11.30;;;7.03;;
6203;SDS011;3135;42.602;23.468;2023-07-13T09:26:41;7.85;;;6.68;;
6203;SDS011;3135;42.602;23.468;2023-07-13T09:29:11;8.13;;;6.40;;
6203;SDS011;3135;42.602;23.468;2023-07-13T09:31:46;8.63;;;6.70;;
6203;SDS011;3135;42.602;23.468;2023-07-13T09:34:15;8.65;;;6.15;;
6203;SDS011;3135;42.602;23.468;2023-07-13T09:36:41;8.53;;;6.70;;
6203;SDS011;3135;42.602;23.468;2023-07-13T09:44:34;12.35;;;6.43;;
6203;SDS011;3135;42.602;23.468;2023-07-13T09:47:02;8.63;;;6.20;;
6203;SDS011;3135;42.602;23.468;2023-07-13T09:49:29;9.23;;;6.60;;
6203;SDS011;3135;42.602;23.468;2023-07-13T09:52:05;6.95;;;6.28;;
6203;SDS011;3135;42.602;23.468;2023-07-13T09:54:35;7.53;;;6.55;;
6203;SDS011;3135;42.602;23.468;2023-07-13T09:57:03;8.43;;;6.45;;
6203;SDS011;3135;42.602;23.468;2023-07-13T09:59:39;8.43;;;6.32;;
6203;SDS011;3135;42.602;23.468;2023-07-13T10:02:24;8.98;;;6.10;;
6203;SDS011;3135;42.602;23.468;2023-07-13T10:05:01;7.45;;;6.63;;
6203;SDS011;3135;42.602;23.468;2023-07-13T10:07:30;10.40;;;6.55;;
6203;SDS011;3135;42.602;23.468;2023-07-13T10:09:57;9.70;;;6.03;;
6203;SDS011;3135;42.602;23.468;2023-07-13T10:12:25;10.10;;;6.40;;
6203;SDS011;3135;42.602;23.468;2023-07-13T10:14:57;8.13;;;6.40;;
6203;SDS011;3135;42.602;23.468;2023-07-13T10:17:31;7.00;;;6.20;;
6203;SDS011;3135;42.602;23.468;2023-07-13T10:20:01;10.43;;;6.80;;
6203;SDS011;3135;42.602;23.468;2023-07-13T10:22:31;6.38;;;5.72;;
6203;SDS011;3135;42.602;23.468;2023-07-13T10:25:26;7.47;;;6.60;;
6203;SDS011;3135;42.602;23.468;2023-07-13T10:27:52;8.85;;;5.93;;
6203;SDS011;3135;42.602;23.468;2023-07-13T10:30:25;9.65;;;6.38;;
6203;SDS011;3135;42.602;23.468;2023-07-13T10:32:57;12.25;;;6.28;;
6203;SDS011;3135;42.602;23.468;2023-07-13T10:35:23;10.23;;;6.22;;
6203;SDS011;3135;42.602;23.468;2023-07-13T10:38:00;7.13;;;6.20;;
6203;SDS011;3135;42.602;23.468;2023-07-13T10:40:38;7.70;;;5.87;;
6203;SDS011;3135;42.602;23.468;2023-07-13T10:43:18;8.03;;;5.90;;
6203;SDS011;3135;42.602;23.468;2023-07-13T10:45:47;8.20;;;5.45;;
6203;SDS011;3135;42.602;23.468;2023-07-13T10:48:16;8.88;;;6.22;;
6203;SDS011;3135;42.602;23.468;2023-07-13T10:50:43;8.27;;;6.10;;
6203;SDS011;3135;42.602;23.468;2023-07-13T10:53:21;8.13;;;6.23;;
6203;SDS011;3135;42.602;23.468;2023-07-13T10:55:55;6.37;;;5.70;;
6203;SDS011;3135;42.602;23.468;2023-07-13T11:09:17;7.90;;;6.40;;
6203;SDS011;3135;42.602;23.468;2023-07-13T11:11:44;9.57;;;6.95;;
6203;SDS011;3135;42.602;23.468;2023-07-13T11:16:56;9.82;;;6.20;;
6203;SDS011;3135;42.602;23.468;2023-07-13T11:27:35;8.27;;;6.47;;
6203;SDS011;3135;42.602;23.468;2023-07-13T11:35:51;8.13;;;6.10;;
6203;SDS011;3135;42.602;23.468;2023-07-13T11:40:58;6.72;;;5.93;;
6203;SDS011;3135;42.602;23.468;2023-07-13T11:43:28;10.20;;;6.03;;
6203;SDS011;3135;42.602;23.468;2023-07-13T11:45:54;8.43;;;6.20;;
6203;SDS011;3135;42.602;23.468;2023-07-13T11:48:21;8.60;;;5.80;;
6203;SDS011;3135;42.602;23.468;2023-07-13T11:50:49;9.82;;;5.93;;
6203;SDS011;3135;42.602;23.468;2023-07-13T11:53:17;7.97;;;5.97;;
6203;SDS011;3135;42.602;23.468;2023-07-13T11:55:42;10.30;;;6.03;;
6203;SDS011;3135;42.602;23.468;2023-07-13T11:58:08;12.93;;;5.90;;
6203;SDS011;3135;42.602;23.468;2023-07-13T12:00:35;7.25;;;5.45;;
6203;SDS011;3135;42.602;23.468;2023-07-13T12:03:03;7.75;;;5.95;;
6203;SDS011;3135;42.602;23.468;2023-07-13T12:05:30;11.23;;;6.07;;
6203;SDS011;3135;42.602;23.468;2023-07-13T12:07:57;9.68;;;5.65;;
6203;SDS011;3135;42.602;23.468;2023-07-13T12:10:27;11.98;;;5.85;;
6203;SDS011;3135;42.602;23.468;2023-07-13T12:12:58;8.35;;;5.43;;
6203;SDS011;3135;42.602;23.468;2023-07-13T12:15:32;9.80;;;6.05;;
6203;SDS011;3135;42.602;23.468;2023-07-13T12:18:14;7.85;;;5.45;;
6203;SDS011;3135;42.602;23.468;2023-07-13T12:20:43;8.32;;;5.50;;
6203;SDS011;3135;42.602;23.468;2023-07-13T12:23:52;21.75;;;14.00;;
6203;SDS011;3135;42.602;23.468;2023-07-13T12:26:01;9.85;;;5.70;;
6203;SDS011;3135;42.602;23.468;2023-07-13T12:28:38;10.13;;;5.40;;
6203;SDS011;3135;42.602;23.468;2023-07-13T12:31:22;9.13;;;5.43;;
6203;SDS011;3135;42.602;23.468;2023-07-13T12:33:56;7.40;;;5.47;;
6203;SDS011;3135;42.602;23.468;2023-07-13T12:36:23;8.40;;;5.10;;
6203;SDS011;3135;42.602;23.468;2023-07-13T12:38:49;6.82;;;5.50;;
6203;SDS011;3135;42.602;23.468;2023-07-13T12:41:16;7.47;;;5.47;;
6203;SDS011;3135;42.602;23.468;2023-07-13T12:43:42;9.05;;;5.38;;
6203;SDS011;3135;42.602;23.468;2023-07-13T12:46:17;9.38;;;5.35;;
6203;SDS011;3135;42.602;23.468;2023-07-13T12:48:47;8.60;;;5.50;;
6203;SDS011;3135;42.602;23.468;2023-07-13T12:51:17;9.32;;;5.63;;
6203;SDS011;3135;42.602;23.468;2023-07-13T12:53:50;9.95;;;5.65;;
6203;SDS011;3135;42.602;23.468;2023-07-13T12:56:26;8.20;;;5.78;;
6203;SDS011;3135;42.602;23.468;2023-07-13T12:58:57;7.38;;;5.63;;
6203;SDS011;3135;42.602;23.468;2023-07-13T13:01:28;8.88;;;5.80;;
6203;SDS011;3135;42.602;23.468;2023-07-13T13:04:00;9.40;;;5.88;;
6203;SDS011;3135;42.602;23.468;2023-07-13T13:06:31;7.67;;;5.17;;
6203;SDS011;3135;42.602;23.468;2023-07-13T13:08:57;8.23;;;5.60;;
6203;SDS011;3135;42.602;23.468;2023-07-13T13:11:25;8.90;;;5.38;;
6203;SDS011;3135;42.602;23.468;2023-07-13T13:13:52;10.93;;;5.82;;
6203;SDS011;3135;42.602;23.468;2023-07-13T13:18:57;8.05;;;5.65;;
6203;SDS011;3135;42.602;23.468;2023-07-13T13:21:27;6.57;;;5.53;;
6203;SDS011;3135;42.602;23.468;2023-07-13T13:23:53;8.53;;;5.90;;
6203;SDS011;3135;42.602;23.468;2023-07-13T13:26:19;8.50;;;5.90;;
6203;SDS011;3135;42.602;23.468;2023-07-13T13:28:47;9.77;;;5.70;;
6203;SDS011;3135;42.602;23.468;2023-07-13T13:31:13;7.03;;;5.60;;
6203;SDS011;3135;42.602;23.468;2023-07-13T13:33:43;8.27;;;5.63;;
6203;SDS011;3135;42.602;23.468;2023-07-13T13:36:17;9.13;;;5.57;;
6203;SDS011;3135;42.602;23.468;2023-07-13T13:38:44;8.23;;;5.83;;
6203;SDS011;3135;42.602;23.468;2023-07-13T13:41:11;8.95;;;5.63;;
6203;SDS011;3135;42.602;23.468;2023-07-13T13:43:38;9.57;;;5.65;;
6203;SDS011;3135;42.602;23.468;2023-07-13T13:46:05;10.13;;;5.83;;
6203;SDS011;3135;42.602;23.468;2023-07-13T13:48:39;7.85;;;5.60;;
6203;SDS011;3135;42.602;23.468;2023-07-13T13:51:16;6.38;;;5.78;;
6203;SDS011;3135;42.602;23.468;2023-07-13T13:53:46;7.87;;;5.93;;
6203;SDS011;3135;42.602;23.468;2023-07-13T13:56:12;10.15;;;5.50;;
6203;SDS011;3135;42.602;23.468;2023-07-13T13:58:39;5.80;;;5.30;;
6203;SDS011;3135;42.602;23.468;2023-07-13T14:01:08;6.70;;;5.70;;
6203;SDS011;3135;42.602;23.468;2023-07-13T14:03:37;9.30;;;5.60;;
6203;SDS011;3135;42.602;23.468;2023-07-13T14:06:03;10.60;;;6.20;;
6203;SDS011;3135;42.602;23.468;2023-07-13T14:08:28;7.50;;;5.00;;
6203;SDS011;3135;42.602;23.468;2023-07-13T14:10:54;9.95;;;5.40;;
6203;SDS011;3135;42.602;23.468;2023-07-13T14:13:30;7.45;;;5.72;;
6203;SDS011;3135;42.602;23.468;2023-07-13T14:16:01;9.65;;;5.50;;
6203;SDS011;3135;42.602;23.468;2023-07-13T14:18:26;8.65;;;5.30;;
6203;SDS011;3135;42.602;23.468;2023-07-13T14:20:52;15.37;;;11.13;;
6203;SDS011;3135;42.602;23.468;2023-07-13T14:23:18;13.10;;;5.93;;
6203;SDS011;3135;42.602;23.468;2023-07-13T14:25:44;8.87;;;5.83;;
6203;SDS011;3135;42.602;23.468;2023-07-13T14:28:24;9.50;;;5.80;;
6203;SDS011;3135;42.602;23.468;2023-07-13T14:30:51;8.98;;;5.53;;
6203;SDS011;3135;42.602;23.468;2023-07-13T14:33:19;7.72;;;5.60;;
6203;SDS011;3135;42.602;23.468;2023-07-13T14:35:45;8.80;;;5.07;;
6203;SDS011;3135;42.602;23.468;2023-07-13T14:38:15;6.10;;;5.20;;
6203;SDS011;3135;42.602;23.468;2023-07-13T14:40:43;7.25;;;4.80;;
6203;SDS011;3135;42.602;23.468;2023-07-13T14:43:13;8.20;;;5.17;;
6203;SDS011;3135;42.602;23.468;2023-07-13T14:45:41;6.85;;;4.85;;
6203;SDS011;3135;42.602;23.468;2023-07-13T14:48:13;9.02;;;5.25;;
6203;SDS011;3135;42.602;23.468;2023-07-13T14:50:56;7.43;;;5.55;;
6203;SDS011;3135;42.602;23.468;2023-07-13T14:53:22;9.32;;;5.65;;
6203;SDS011;3135;42.602;23.468;2023-07-13T14:55:50;8.17;;;5.47;;
6203;SDS011;3135;42.602;23.468;2023-07-13T14:58:15;6.55;;;4.80;;
6203;SDS011;3135;42.602;23.468;2023-07-13T15:00:41;7.60;;;5.10;;
6203;SDS011;3135;42.602;23.468;2023-07-13T15:03:08;5.43;;;4.93;;
6203;SDS011;3135;42.602;23.468;2023-07-13T15:05:44;9.68;;;5.43;;
6203;SDS011;3135;42.602;23.468;2023-07-13T15:08:10;7.90;;;4.90;;
6203;SDS011;3135;42.602;23.468;2023-07-13T15:10:37;5.82;;;5.30;;
6203;SDS011;3135;42.602;23.468;2023-07-13T15:13:16;7.13;;;5.50;;
6203;SDS011;3135;42.602;23.468;2023-07-13T15:15:43;11.48;;;5.43;;
6203;SDS011;3135;42.602;23.468;2023-07-13T15:18:12;10.38;;;5.05;;
6203;SDS011;3135;42.602;23.468;2023-07-13T15:20:39;9.57;;;5.85;;
6203;SDS011;3135;42.602;23.468;2023-07-13T15:23:05;7.75;;;5.47;;
6203;SDS011;3135;42.602;23.468;2023-07-13T15:25:32;8.77;;;5.07;;
6203;SDS011;3135;42.602;23.468;2023-07-13T15:27:58;6.38;;;5.05;;
6203;SDS011;3135;42.602;23.468;2023-07-13T15:30:46;6.90;;;5.10;;
6203;SDS011;3135;42.602;23.468;2023-07-13T15:33:17;9.23;;;5.57;;
6203;SDS011;3135;42.602;23.468;2023-07-13T15:35:47;7.80;;;5.70;;
6203;SDS011;3135;42.602;23.468;2023-07-13T15:38:23;8.68;;;5.32;;
6203;SDS011;3135;42.602;23.468;2023-07-13T15:40:51;9.73;;;5.27;;
6203;SDS011;3135;42.602;23.468;2023-07-13T15:43:17;8.43;;;5.40;;
6203;SDS011;3135;42.602;23.468;2023-07-13T15:45:44;7.45;;;5.75;;
6203;SDS011;3135;42.602;23.468;2023-07-13T15:50:50;6.13;;;5.25;;
6203;SDS011;3135;42.602;23.468;2023-07-13T15:53:19;9.07;;;5.30;;
6203;SDS011;3135;42.602;23.468;2023-07-13T15:55:55;10.15;;;5.38;;
6203;SDS011;3135;42.602;23.468;2023-07-13T15:58:20;9.10;;;5.53;;
6203;SDS011;3135;42.602;23.468;2023-07-13T16:00:46;8.73;;;5.38;;
6203;SDS011;3135;42.602;23.468;2023-07-13T16:03:15;7.63;;;5.47;;
6203;SDS011;3135;42.602;23.468;2023-07-13T16:05:40;5.70;;;5.10;;
6203;SDS011;3135;42.602;23.468;2023-07-13T16:08:06;6.23;;;5.00;;